Home > Products > Valid Products > TAF

000
FTUS41 KILN 201100
TAFCMH
TAF
KCMH 201122Z 2012/2112 21008KT P6SM VCSH BKN100
     FM201500 21012G18KT P6SM SCT040 BKN080
     FM201900 22011KT P6SM VCSH OVC035
      TEMPO 2023/2103 -SHRA OVC020
     FM210300 27007KT P6SM SCT012
     FM210500 27007KT 5SM BR OVC008
      TEMPO 2109/2112 P6SM NSW OVC010=



000
FTUS41 KILN 201100
TAFILN
TAF
KILN 201122Z 2012/2112 20008KT P6SM VCSH BKN100
     FM201400 22014G22KT P6SM SCT030 BKN080
     FM201700 23014G22KT P6SM BKN035
     FM202100 21009KT P6SM VCSH OVC025
     FM210300 27007KT P6SM SCT020
     FM210500 30006KT 5SM BR OVC006
      TEMPO 2105/2108 P6SM NSW SCT008=



000
FTUS41 KILN 201100
TAFCVG
TAF
KCVG 201122Z 2012/2118 21006KT P6SM VCSH BKN100
     FM201500 22012G18KT P6SM BKN035 BKN060
      TEMPO 2023/2102 24008KT -SHRA OVC030
     FM210200 29006KT P6SM SCT030
     FM210800 30006KT P6SM OVC040
     FM211500 33012KT P6SM SCT040=



000
FTUS41 KILN 201100
TAFDAY
TAF
KDAY 201122Z 2012/2112 20006KT P6SM VCSH BKN090
     FM201400 22014G22KT P6SM SCT030 BKN080
     FM201700 23014G22KT P6SM VCSH BKN035
      TEMPO 2021/2024 OVC025
     FM210100 27007KT P6SM SCT030
     FM210500 30006KT 5SM BR OVC006
      TEMPO 2109/2112 P6SM NSW OVC008=



000
FTUS41 KILN 201100
TAFLUK
TAF
KLUK 201122Z 2012/2112 21006KT P6SM VCSH BKN100
     FM201500 21011G17KT P6SM BKN040 BKN080
      TEMPO 2023/2102 24008KT -SHRA OVC030
     FM210200 29006KT P6SM SCT035
     FM210800 30006KT P6SM OVC040=



000
FTUS41 KILN 201100
TAFLCK
TAF
KLCK 201122Z 2012/2112 21008KT P6SM VCSH BKN100
     FM201500 21012G18KT P6SM SCT040 BKN080
     FM201900 22011KT P6SM VCSH OVC035
      TEMPO 2023/2103 -SHRA OVC020
     FM210300 27007KT P6SM SCT012
     FM210500 27007KT 5SM BR OVC008
      TEMPO 2109/2112 P6SM NSW OVC010=



000
FTUS41 KILN 200900 AAA
TAFCVG
TAF AMD
KCVG 200904Z 2009/2112 20006KT P6SM VCSH BKN100
     FM201500 22012G18KT P6SM BKN035 BKN060
      TEMPO 2023/2102 24008KT -SHRA OVC030
     FM210200 29006KT P6SM SCT030=



000
FTUS41 KILN 200500
TAFLUK
TAF
KLUK 200539Z 2006/2106 VRB03KT P6SM SCT200
     FM201000 20006KT P6SM BKN100
     FM201500 21011G17KT P6SM BKN040 BKN080
      TEMPO 2023/2102 24008KT -SHRA OVC030
     FM210200 29006KT P6SM SCT035=



000
FTUS41 KILN 200500
TAFCMH
TAF
KCMH 200539Z 2006/2106 20003KT P6SM BKN250
     FM201200 21010KT P6SM BKN100
     FM201500 21012G18KT P6SM SCT040 BKN080
     FM201900 22011KT P6SM VCSH OVC035
      TEMPO 2023/2103 -SHRA OVC020
     FM210400 27007KT P6SM SCT012=



000
FTUS41 KILN 200500
TAFCVG
TAF
KCVG 200539Z 2006/2112 19003KT P6SM SCT200
     FM201000 20006KT P6SM BKN090
     FM201500 22012G18KT P6SM BKN035 BKN060
      TEMPO 2023/2102 24008KT -SHRA OVC030
     FM210200 29006KT P6SM SCT030=



000
FTUS41 KILN 200500
TAFDAY
TAF
KDAY 200539Z 2006/2106 22004KT P6SM SCT200
     FM200900 20008KT P6SM BKN090
     FM201400 22014G22KT P6SM SCT030 BKN080
     FM201700 23014G22KT P6SM VCSH BKN035
      TEMPO 2021/2024 OVC025
     FM210100 27007KT P6SM SCT030=



000
FTUS41 KILN 200500
TAFILN
TAF
KILN 200539Z 2006/2106 22004KT P6SM SCT200
     FM200900 20008KT P6SM BKN090
     FM201400 22014G22KT P6SM SCT030 BKN080
     FM201700 23014G22KT P6SM VCSH BKN035
      TEMPO 2021/2024 OVC025
     FM210100 27007KT P6SM SCT030=



000
FTUS41 KILN 200500
TAFLCK
TAF
KLCK 200539Z 2006/2106 20003KT P6SM BKN250
     FM201200 21010KT P6SM BKN100
     FM201500 21012G18KT P6SM SCT040 BKN080
     FM201900 22011KT P6SM VCSH OVC035
      TEMPO 2023/2103 -SHRA OVC020
     FM210400 27007KT P6SM SCT012=



000
FTUS41 KILN 192300
TAFLCK
TAF
KLCK 192328Z 2000/2024 20004KT P6SM BKN250
     FM201100 21010KT P6SM BKN100
     FM201500 21012G18KT P6SM SCT040 BKN080
     FM202000 22013KT P6SM -SHRA OVC035=



000
FTUS41 KILN 192300
TAFDAY
TAF
KDAY 192328Z 2000/2024 22004KT P6SM SCT200
     FM200900 20008KT P6SM VCSH BKN090
     FM201400 22014G22KT P6SM SCT040 BKN080
     FM201700 23014G22KT P6SM VCSH BKN035=



000
FTUS41 KILN 192300
TAFCVG
TAF
KCVG 192328Z 2000/2106 19003KT P6SM SCT200
     FM201000 20006KT P6SM VCSH BKN090
     FM201500 21012G18KT P6SM SCT040 BKN080
     FM201900 22012G18KT P6SM VCSH BKN040
     FM210100 29006KT P6SM BKN035=



000
FTUS41 KILN 192300
TAFCMH
TAF
KCMH 192328Z 2000/2024 20003KT P6SM BKN250
     FM201100 21010KT P6SM BKN100
     FM201500 21012G18KT P6SM SCT040 BKN080
     FM201900 22013KT P6SM -SHRA OVC035=



000
FTUS41 KILN 192300
TAFLUK
TAF
KLUK 192328Z 2000/2024 VRB03KT P6SM SCT200
     FM201000 20006KT P6SM VCSH BKN090
     FM201500 21011G17KT P6SM SCT040 BKN080
     FM201900 22012G18KT P6SM VCSH BKN040=



000
FTUS41 KILN 192300
TAFILN
TAF
KILN 192328Z 2000/2024 22004KT P6SM SCT200
     FM201000 20006KT P6SM VCSH BKN090
     FM201400 22013G20KT P6SM SCT040 BKN080
     FM201800 22014G21KT P6SM VCSH BKN040=



000
FTUS41 KILN 192300
TAFILN
TAF
KILN 192328Z 2000/2024 22004KT P6SM SCT200
     FM201000 20006KT P6SM VCSH BKN090
     FM201400 22013G20KT P6SM SCT040 BKN080
     FM201800 22014G21KT P6SM VCSH BKN040=



000
FTUS41 KILN 192300
TAFDAY
TAF
KDAY 192328Z 2000/2024 22004KT P6SM SCT200
     FM200900 20008KT P6SM VCSH BKN090
     FM201400 22014G22KT P6SM SCT040 BKN080
     FM201700 23014G22KT P6SM VCSH BKN035=



000
FTUS41 KILN 192300
TAFLUK
TAF
KLUK 192328Z 2000/2024 VRB03KT P6SM SCT200
     FM201000 20006KT P6SM VCSH BKN090
     FM201500 21011G17KT P6SM SCT040 BKN080
     FM201900 22012G18KT P6SM VCSH BKN040=



000
FTUS41 KILN 192300
TAFCVG
TAF
KCVG 192328Z 2000/2106 19003KT P6SM SCT200
     FM201000 20006KT P6SM VCSH BKN090
     FM201500 21012G18KT P6SM SCT040 BKN080
     FM201900 22012G18KT P6SM VCSH BKN040
     FM210100 29006KT P6SM BKN035=



000
FTUS41 KILN 192300
TAFCMH
TAF
KCMH 192328Z 2000/2024 20003KT P6SM BKN250
     FM201100 21010KT P6SM BKN100
     FM201500 21012G18KT P6SM SCT040 BKN080
     FM201900 22013KT P6SM -SHRA OVC035=



000
FTUS41 KILN 192300
TAFLCK
TAF
KLCK 192328Z 2000/2024 20004KT P6SM BKN250
     FM201100 21010KT P6SM BKN100
     FM201500 21012G18KT P6SM SCT040 BKN080
     FM202000 22013KT P6SM -SHRA OVC035=



000
FTUS41 KILN 192000 AAA
TAFCVG
TAF AMD
KCVG 192057Z 1921/2024 23004KT P6SM SCT250
     FM200000 20004KT P6SM SCT200
     FM201000 20006KT P6SM BKN100
     FM201500 22012G18KT P6SM BKN080
     FM202000 23012G18KT P6SM VCSH BKN040=



000
FTUS41 KILN 191700
TAFLUK
TAF
KLUK 191726Z 1918/2018 24005KT P6SM FEW030 BKN250
     FM200000 20003KT P6SM SCT250
     FM201000 20006KT P6SM BKN100
     FM201500 22012G18KT P6SM BKN080=



000
FTUS41 KILN 191700
TAFLCK
TAF
KLCK 191726Z 1918/2018 28005KT P6SM BKN250
     FM192300 23004KT P6SM SCT250
     FM201100 21010KT P6SM BKN100
     FM201500 22012G18KT P6SM BKN080=



000
FTUS41 KILN 191700
TAFILN
TAF
KILN 191726Z 1918/2018 24006KT P6SM OVC250
     FM192300 22004KT P6SM SCT250
     FM201000 20006KT P6SM BKN100
     FM201400 22012G20KT P6SM BKN080=



000
FTUS41 KILN 191700
TAFCVG
TAF
KCVG 191726Z 1918/2024 24005KT P6SM FEW030 BKN250
     FM200000 20004KT P6SM SCT250
     FM201000 20006KT P6SM BKN100
     FM201500 22012G18KT P6SM BKN080
     FM202000 23012G18KT P6SM VCSH BKN040=



000
FTUS41 KILN 191700
TAFCMH
TAF
KCMH 191726Z 1918/2018 28005KT P6SM BKN250
     FM192300 23005KT P6SM SCT250
     FM201100 21010KT P6SM BKN100
     FM201500 22012G18KT P6SM BKN080=



000
FTUS41 KILN 191700
TAFDAY
TAF
KDAY 191726Z 1918/2018 27005KT P6SM OVC250
     FM192300 22004KT P6SM SCT250
     FM200900 20008KT P6SM BKN100
     FM201400 22014G22KT P6SM BKN080=



000
FTUS41 KILN 191600 AAB
TAFDAY
TAF AMD
KDAY 191623Z 1916/2012 27005KT P6SM FEW025 BKN250
     FM192300 22004KT P6SM SCT250
     FM200900 20008KT P6SM BKN100=



000
FTUS41 KILN 191500 AAA
TAFILN
TAF AMD
KILN 191518Z 1915/2012 24006KT P6SM SCT030
      TEMPO 1915/1918 BKN022
     FM192300 22004KT P6SM SCT250
     FM201000 20006KT P6SM BKN100=



000
FTUS41 KILN 191500 AAA
TAFDAY
TAF AMD
KDAY 191518Z 1915/2012 27005KT P6SM SCT035
      TEMPO 1915/1917 BKN025
     FM192300 22004KT P6SM SCT250
     FM200900 20008KT P6SM BKN100=



000
FTUS41 KILN 191500 AAB
TAFLUK
TAF AMD
KLUK 191518Z 1915/2012 27003KT P6SM BKN028
     FM191800 24004KT P6SM BKN035
     FM200000 23004KT P6SM SCT250
     FM201000 20006KT P6SM BKN100=



000
FTUS41 KILN 191500 AAB
TAFCVG
TAF AMD
KCVG 191518Z 1915/2018 27003KT P6SM BKN025
     FM191800 24004KT P6SM BKN035
     FM200000 23004KT P6SM SCT250
     FM201000 20006KT P6SM BKN100=



000
FTUS41 KILN 191400 AAA
TAFCMH
TAF AMD
KCMH 191446Z 1915/2012 28005KT P6SM FEW035 SCT250
      TEMPO 1916/1918 BKN022
     FM192000 24006KT P6SM SKC
     FM201100 21010KT P6SM BKN100=



000
FTUS41 KILN 191400 AAA
TAFLCK
TAF AMD
KLCK 191446Z 1915/2012 28005KT P6SM FEW035 SCT250
      TEMPO 1916/1918 BKN022
     FM192000 24006KT P6SM SKC
     FM201100 21010KT P6SM BKN100=



000
FTUS41 KILN 191300 AAA
TAFLUK
TAF AMD
KLUK 191352Z 1914/2012 24003KT P6SM SCT030
      TEMPO 1914/1916 BKN025
     FM200000 19004KT P6SM BKN200
     FM201000 20004KT P6SM VCSH SCT050 BKN100=



000
FTUS41 KILN 191300 AAA
TAFCVG
TAF AMD
KCVG 191352Z 1914/2018 24003KT P6SM SCT025
      TEMPO 1914/1916 BKN025
     FM200000 19004KT P6SM BKN200
     FM201000 20006KT P6SM SCT050 BKN100
      TEMPO 2010/2014 -SHRA BKN050=



000
FTUS41 KILN 191100
TAFLUK
TAF
KLUK 191121Z 1912/2012 34003KT P6SM BKN035
     FM191400 24003KT P6SM SCT030
     FM200000 19004KT P6SM BKN200
     FM201000 20004KT P6SM VCSH SCT050 BKN100=



000
FTUS41 KILN 191100
TAFILN
TAF
KILN 191121Z 1912/2012 30004KT P6SM SCT030
     FM191500 24006KT P6SM SCT200
     FM200400 19004KT P6SM BKN200
     FM200900 20006KT P6SM BKN090=



000
FTUS41 KILN 191100
TAFLCK
TAF
KLCK 191121Z 1912/2012 32004KT P6SM SCT035
     FM191400 28005KT P6SM SCT250
     FM192000 24007KT P6SM SKC
     FM201100 21007KT P6SM BKN100=



000
FTUS41 KILN 191100
TAFCVG
TAF
KCVG 191121Z 1912/2018 34003KT P6SM BKN035
      TEMPO 1912/1914 BKN025
     FM191400 24003KT P6SM SCT025
     FM200000 19004KT P6SM BKN200
     FM201000 20006KT P6SM SCT050 BKN100
      TEMPO 2010/2014 -SHRA BKN050=



000
FTUS41 KILN 191100
TAFDAY
TAF
KDAY 191121Z 1912/2012 30004KT P6SM FEW030
     FM191400 24006KT P6SM SCT200
     FM200400 19004KT P6SM BKN200
     FM200900 20008KT P6SM BKN100=



000
FTUS41 KILN 191100
TAFCMH
TAF
KCMH 191121Z 1912/2012 32005KT P6SM SCT035
     FM191400 28005KT P6SM SCT250
     FM192000 24007KT P6SM SKC
     FM201100 21007KT P6SM BKN100=



000
FTUS41 KILN 191000 AAB
TAFCVG
TAF AMD
KCVG 191052Z 1911/2012 34004KT P6SM FEW010 OVC030
     FM191600 24003KT P6SM SCT025
     FM200000 19004KT P6SM BKN200=



000
FTUS41 KILN 190900 AAA
TAFCVG
TAF AMD
KCVG 190900Z 1909/2012 34004KT P6SM FEW010 OVC040
     FM191600 24003KT P6SM SCT025
     FM200000 19004KT P6SM BKN200=



000
FTUS41 KILN 190500
TAFCMH
TAF
KCMH 190540Z 1906/2006 33007KT P6SM SCT015 BKN035
      TEMPO 1906/1910 OVC020
     FM191300 28005KT P6SM SCT020
     FM192000 24007KT P6SM SKC=



000
FTUS41 KILN 190500
TAFDAY
TAF
KDAY 190540Z 1906/2006 32008KT P6SM SCT020 OVC035
      TEMPO 1906/1909 OVC025
     FM190900 30004KT P6SM SCT025
     FM191400 24006KT P6SM SCT200
     FM200400 19004KT P6SM BKN200=



000
FTUS41 KILN 190500
TAFILN
TAF
KILN 190540Z 1906/2006 32008KT P6SM SCT015 OVC035
      TEMPO 1906/1909 OVC030
     FM191030 30004KT P6SM SCT030
     FM191500 24006KT P6SM SCT200
     FM200400 19004KT P6SM BKN200=



000
FTUS41 KILN 190500
TAFCVG
TAF
KCVG 190540Z 1906/2012 34006KT P6SM OVC030
     FM191700 24003KT P6SM SCT025
     FM200000 19004KT P6SM BKN200=



000
FTUS41 KILN 190500
TAFLCK
TAF
KLCK 190540Z 1906/2006 33007KT P6SM SCT015 BKN035
      TEMPO 1906/1910 OVC020
     FM191300 28005KT P6SM SCT020
     FM192000 24007KT P6SM SKC=



000
FTUS41 KILN 190500
TAFLUK
TAF
KLUK 190540Z 1906/2006 32005KT P6SM OVC035
      TEMPO 1906/1910 OVC030
     FM191700 24003KT P6SM SCT030
     FM200000 19004KT P6SM BKN200=



000
FTUS41 KILN 190200 AAA
TAFLCK
TAF AMD
KLCK 190224Z 1902/1924 32007KT P6SM OVC025
      TEMPO 1902/1906 BKN015
     FM191000 31004KT P6SM SCT025
     FM191500 28005KT P6SM FEW040
     FM192000 24007KT P6SM SKC=



000
FTUS41 KILN 190200 AAA
TAFCMH
TAF AMD
KCMH 190222Z 1902/1924 32008KT P6SM BKN035
      TEMPO 1902/1906 OVC025
     FM190900 31004KT P6SM SCT025
     FM191500 28005KT P6SM FEW040
     FM192000 24007KT P6SM SKC=



000
FTUS41 KILN 190200 AAA
TAFILN
TAF AMD
KILN 190221Z 1902/1924 32006KT P6SM OVC035
      TEMPO 1902/1906 OVC022
     FM190900 30004KT P6SM SCT025
     FM191500 28005KT P6SM FEW040
     FM192000 24007KT P6SM FEW040=



000
FTUS41 KILN 190200 AAA
TAFDAY
TAF AMD
KDAY 190220Z 1902/1924 32006KT P6SM BKN035
      TEMPO 1902/1906 OVC022
     FM190800 30004KT P6SM FEW025
     FM191400 VRB03KT P6SM FEW040
     FM191800 24007KT P6SM FEW040=



000
FTUS41 KILN 190200 AAA
TAFLUK
TAF AMD
KLUK 190219Z 1902/1924 32005KT P6SM OVC022
     FM190900 34005KT P6SM SCT025
     FM191500 VRB03KT P6SM FEW040
     FM192200 21004KT P6SM BKN200=



000
FTUS41 KILN 190200 AAA
TAFCVG
TAF AMD
KCVG 190218Z 1902/2006 33008KT P6SM OVC025
      TEMPO 1902/1905 BKN015
     FM190900 34005KT P6SM SCT025
     FM191500 VRB03KT P6SM FEW040
     FM192200 22004KT P6SM BKN200=



000
FTUS41 KILN 182300
TAFCMH
TAF
KCMH 182320Z 1900/1924 32010KT P6SM BKN025
     FM190900 31004KT P6SM SCT025
     FM191500 28005KT P6SM FEW040
     FM192000 24007KT P6SM SKC=



000
FTUS41 KILN 182300
TAFILN
TAF
KILN 182320Z 1900/1924 33008KT P6SM OVC015
     FM190200 32006KT P6SM OVC022
     FM190800 30004KT P6SM SCT025
     FM191500 28005KT P6SM FEW040
     FM192000 24007KT P6SM FEW040=



000
FTUS41 KILN 182300
TAFLCK
TAF
KLCK 182320Z 1900/1924 32010KT P6SM VCSH BKN035
     FM190100 32007KT P6SM BKN025
     FM190900 31004KT P6SM SCT025
     FM191500 28005KT P6SM FEW040
     FM192000 24007KT P6SM SKC=



000
FTUS41 KILN 182300
TAFDAY
TAF
KDAY 182320Z 1900/1924 32008KT P6SM BKN020
     FM190600 30004KT P6SM FEW025
     FM191400 VRB03KT P6SM FEW040
     FM191800 24007KT P6SM FEW040=



000
FTUS41 KILN 182300
TAFCVG
TAF
KCVG 182320Z 1900/2006 32010KT P6SM SCT015 OVC025
     FM190100 33008KT P6SM OVC025
     FM190800 34005KT P6SM SCT025
     FM191500 VRB03KT P6SM FEW040
     FM192200 22004KT P6SM BKN200=



000
FTUS41 KILN 182300
TAFLUK
TAF
KLUK 182320Z 1900/1924 33008KT P6SM -SHRA SCT018 OVC028
     FM190100 33008KT P6SM OVC025
     FM190800 34005KT P6SM SCT025
     FM191500 VRB03KT P6SM FEW040
     FM192200 21004KT P6SM BKN200=



000
FTUS41 KILN 182200 AAA
TAFLCK
TAF AMD
KLCK 182204Z 1822/1918 32011KT P6SM -SHRA OVC035
     FM190000 32011KT P6SM BKN020
     FM190200 33010KT P6SM OVC015
     FM191100 31004KT P6SM SCT025
     FM191500 28005KT P6SM FEW040=



000
FTUS41 KILN 182200 AAA
TAFLCK
TAF AMD
KLCK 182204Z 1822/1918 32011KT P6SM -SHRA OVC035
     FM190000 32011KT P6SM BKN020
     FM190200 33010KT P6SM OVC015
     FM191100 31004KT P6SM SCT025
     FM191500 28005KT P6SM FEW040=



000
FTUS41 KILN 182200 AAA
TAFCMH
TAF AMD
KCMH 182203Z 1822/1918 32012KT P6SM -SHRA OVC035
     FM190000 32012KT P6SM BKN018
     FM190200 33010KT P6SM OVC015
     FM191100 31004KT P6SM SCT025
     FM191500 28005KT P6SM FEW040=



000
FTUS41 KILN 182200 AAA
TAFILN
TAF AMD
KILN 182201Z 1822/1918 32011KT P6SM -SHRA BKN025
     FM190000 32010KT P6SM OVC015
     FM190300 31008KT P6SM BKN015
     FM191000 30004KT P6SM SCT025
     FM191500 28005KT P6SM FEW040=



000
FTUS41 KILN 182100 AAA
TAFDAY
TAF AMD
KDAY 182159Z 1822/1918 33012G17KT P6SM -SHRA OVC035
     FM182300 32011KT P6SM BKN025
     FM190200 31008KT P6SM BKN015
     FM190900 30004KT P6SM FEW025
     FM191500 28005KT P6SM FEW040=



000
FTUS41 KILN 182100 AAA
TAFLUK
TAF AMD
KLUK 182157Z 1822/1918 32010KT P6SM -SHRA OVC035
     FM190000 33008KT P6SM OVC030
     FM190800 34005KT P6SM SCT025
     FM191500 30004KT P6SM FEW040=



000
FTUS41 KILN 182000 AAA
TAFCVG
TAF AMD
KCVG 182057Z 1821/1924 32012KT P6SM -SHRA OVC035
     FM182300 33010KT P6SM -SHRA OVC025
     FM190100 33008KT P6SM OVC025
     FM190800 34005KT P6SM SCT025
     FM191500 30004KT P6SM FEW040
     FM192200 25005KT P6SM SKC=



000
FTUS41 KILN 181700
TAFLCK
TAF
KLCK 181728Z 1818/1918 31012G20KT P6SM VCSH OVC025
      TEMPO 1820/1823 -SHRA
     FM182300 32012G18KT P6SM BKN018
     FM190200 33010KT P6SM OVC015
     FM191100 31004KT P6SM SCT025
     FM191500 28005KT P6SM FEW040=



000
FTUS41 KILN 181700
TAFLUK
TAF
KLUK 181728Z 1818/1918 31012G20KT P6SM OVC025
     FM182000 32012G20KT P6SM -SHRA BKN022
     FM190000 33010KT P6SM OVC022
     FM190800 34005KT P6SM SCT025
     FM191500 30004KT P6SM FEW040=



000
FTUS41 KILN 181700
TAFILN
TAF
KILN 181728Z 1818/1918 31012G18KT P6SM VCSH OVC025
     FM182000 32010G18KT P6SM -SHRA OVC022
     FM190000 32010G18KT P6SM OVC015
     FM190300 31008KT P6SM BKN015
     FM191000 30004KT P6SM SCT025
     FM191500 28005KT P6SM FEW040=



000
FTUS41 KILN 181700
TAFCVG
TAF
KCVG 181728Z 1818/1924 31012G20KT P6SM VCSH OVC025
     FM182000 32012G20KT P6SM -SHRA BKN022
     FM190000 33010KT P6SM OVC020
     FM190800 34005KT P6SM SCT025
     FM191500 30004KT P6SM FEW040
     FM192200 25005KT P6SM SKC=



000
FTUS41 KILN 181700
TAFCMH
TAF
KCMH 181728Z 1818/1918 31012G20KT P6SM VCSH OVC025
      TEMPO 1820/1823 -SHRA
     FM182300 32012G18KT P6SM BKN018
     FM190200 33010KT P6SM OVC015
     FM191100 31004KT P6SM SCT025
     FM191500 28005KT P6SM FEW040=



000
FTUS41 KILN 181700
TAFDAY
TAF
KDAY 181728Z 1818/1918 31012G20KT P6SM VCSH OVC025
     FM181900 32012G20KT P6SM -SHRA OVC022
     FM182300 32010G18KT P6SM OVC015
     FM190200 31008KT P6SM BKN015
     FM190900 30004KT P6SM FEW025
     FM191500 28005KT P6SM FEW040=



000
FTUS41 KILN 181500 AAB
TAFDAY
TAF AMD
KDAY 181513Z 1815/1912 31012G20KT P6SM VCSH OVC035
      TEMPO 1815/1817 BKN022
     FM181700 31012G20KT P6SM VCSH OVC022
      TEMPO 1818/1821 -SHRA OVC018
     FM182300 32010G18KT P6SM OVC015
     FM190200 31008KT P6SM BKN015
     FM190900 30004KT P6SM FEW025=



000
FTUS41 KILN 181500 AAB
TAFILN
TAF AMD
KILN 181513Z 1815/1912 31012G20KT P6SM VCSH OVC035
      TEMPO 1815/1818 BKN025
     FM181800 31012G20KT P6SM VCSH OVC025
     FM182300 32010G18KT P6SM OVC015
     FM190300 31008KT P6SM BKN015
     FM191000 30004KT P6SM SCT025=



000
FTUS41 KILN 181500 AAA
TAFCMH
TAF AMD
KCMH 181512Z 1815/1912 31012G18KT P6SM BKN025
     FM181800 31012G20KT P6SM VCSH OVC025
      TEMPO 1819/1823 -SHRA
     FM182300 32012G18KT P6SM BKN018
     FM190200 33010KT P6SM OVC015
     FM191000 32004KT P6SM SCT025=



000
FTUS41 KILN 181500 AAA
TAFLCK
TAF AMD
KLCK 181512Z 1815/1912 31012G18KT P6SM BKN025
     FM181800 31012G20KT P6SM VCSH OVC025
      TEMPO 1819/1823 -SHRA
     FM182300 32012G18KT P6SM BKN018
     FM190200 33010KT P6SM OVC015
     FM191000 32004KT P6SM SCT025=



000
FTUS41 KILN 181500 AAA
TAFDAY
TAF AMD
KDAY 181507Z 1815/1912 31012G20KT P6SM VCSH OVC035
     FM181700 31012G20KT P6SM VCSH OVC025
      TEMPO 1818/1821 -SHRA OVC018
     FM182300 32010G18KT P6SM OVC015
     FM190200 31008KT P6SM BKN015
     FM190900 30004KT P6SM FEW025=



000
FTUS41 KILN 181500 AAA
TAFILN
TAF AMD
KILN 181507Z 1815/1912 31012G20KT P6SM VCSH OVC035
     FM181800 31012G20KT P6SM VCSH OVC025
     FM182300 32010G18KT P6SM OVC015
     FM190300 31008KT P6SM BKN015
     FM191000 30004KT P6SM SCT025=



000
FTUS41 KILN 181400 AAA
TAFCVG
TAF AMD
KCVG 181458Z 1815/1918 32012G18KT P6SM OVC040
      TEMPO 1815/1817 BKN025
     FM181700 31012G20KT P6SM OVC025
     FM181900 32012G20KT P6SM VCSH BKN022
     FM182300 33010G18KT P6SM OVC020
     FM190600 34006KT P6SM SCT025
     FM191000 VRB03KT P6SM SKC=



000
FTUS41 KILN 181400 AAA
TAFLUK
TAF AMD
KLUK 181458Z 1815/1912 32012G18KT P6SM OVC040
      TEMPO 1815/1817 BKN028
     FM181700 31012G20KT P6SM OVC025
     FM181900 32012G20KT P6SM VCSH BKN022
     FM182300 33010G18KT P6SM OVC022
     FM190600 34006KT P6SM SCT025
     FM191000 VRB03KT P6SM SKC=



000
FTUS41 KILN 181400 AAA
TAFLUK
TAF AMD
KLUK 181458Z 1815/1912 32012G18KT P6SM OVC040
      TEMPO 1815/1817 BKN028
     FM181700 31012G20KT P6SM OVC025
     FM181900 32012G20KT P6SM VCSH BKN022
     FM182300 33010G18KT P6SM OVC022
     FM190600 34006KT P6SM SCT025
     FM191000 VRB03KT P6SM SKC=



000
FTUS41 KILN 181400 AAA
TAFCVG
TAF AMD
KCVG 181458Z 1815/1918 32012G18KT P6SM OVC040
      TEMPO 1815/1817 BKN025
     FM181700 31012G20KT P6SM OVC025
     FM181900 32012G20KT P6SM VCSH BKN022
     FM182300 33010G18KT P6SM OVC020
     FM190600 34006KT P6SM SCT025
     FM191000 VRB03KT P6SM SKC=



000
FTUS41 KILN 181100
TAFILN
TAF
KILN 181124Z 1812/1912 30012KT P6SM OVC025
     FM181500 31012G22KT P6SM VCSH OVC022
     FM182300 32010G18KT P6SM OVC020
      TEMPO 1823/1903 33010KT OVC015
     FM190300 31008KT P6SM OVC014
     FM191000 30004KT P6SM SCT018=



000
FTUS41 KILN 181100
TAFLCK
TAF
KLCK 181124Z 1812/1912 29012KT P6SM BKN025
     FM181600 31014G24KT P6SM VCSH OVC025
      TEMPO 1819/1823 -SHRA
     FM182300 32012G18KT P6SM BKN025
      TEMPO 1823/1902 OVC018
     FM190200 33010KT P6SM OVC015
      TEMPO 1905/1908 BKN025
     FM190800 32004KT P6SM SCT025=



000
FTUS41 KILN 181100
TAFCMH
TAF
KCMH 181124Z 1812/1912 29012KT P6SM BKN025
     FM181600 31014G24KT P6SM VCSH OVC025
      TEMPO 1819/1823 -SHRA
     FM182300 32012G18KT P6SM BKN025
      TEMPO 1823/1902 OVC018
     FM190200 33010KT P6SM OVC015
      TEMPO 1905/1908 BKN025
     FM190800 32004KT P6SM SCT025=



000
FTUS41 KILN 181100
TAFLUK
TAF
KLUK 181124Z 1812/1912 28012KT P6SM OVC025
     FM181900 31012G22KT P6SM VCSH OVC025
     FM182300 32010G18KT P6SM OVC022
      TEMPO 1902/1905 33008KT SCT022
     FM190500 34006KT P6SM SCT022
      TEMPO 1905/1909 BKN020
     FM191000 00000KT P6SM SKC=



000
FTUS41 KILN 181100
TAFCVG
TAF
KCVG 181124Z 1812/1918 28012KT P6SM OVC025
     FM181900 31012G22KT P6SM VCSH OVC025
     FM182300 32010G18KT P6SM OVC020
      TEMPO 1902/1906 33008KT SCT020
     FM190600 34006KT P6SM SCT018
      TEMPO 1906/1910 BKN018
     FM191000 VRB03KT P6SM SKC=



000
FTUS41 KILN 181100
TAFDAY
TAF
KDAY 181124Z 1812/1912 30012KT P6SM OVC025
     FM181500 31012G22KT P6SM VCSH OVC022
     FM182300 32010G18KT P6SM OVC020
      TEMPO 1823/1903 33010KT OVC015
     FM190300 31008KT P6SM OVC014
     FM191000 30004KT P6SM SCT018=



000
FTUS41 KILN 181100
TAFDAY
TAF
KDAY 181124Z 1812/1912 30012KT P6SM OVC025
     FM181500 31012G22KT P6SM VCSH OVC022
     FM182300 32010G18KT P6SM OVC020
      TEMPO 1823/1903 33010KT OVC015
     FM190300 31008KT P6SM OVC014
     FM191000 30004KT P6SM SCT018=



000
FTUS41 KILN 181100
TAFILN
TAF
KILN 181124Z 1812/1912 30012KT P6SM OVC025
     FM181500 31012G22KT P6SM VCSH OVC022
     FM182300 32010G18KT P6SM OVC020
      TEMPO 1823/1903 33010KT OVC015
     FM190300 31008KT P6SM OVC014
     FM191000 30004KT P6SM SCT018=



000
FTUS41 KILN 181100
TAFLUK
TAF
KLUK 181124Z 1812/1912 28012KT P6SM OVC025
     FM181900 31012G22KT P6SM VCSH OVC025
     FM182300 32010G18KT P6SM OVC022
      TEMPO 1902/1905 33008KT SCT022
     FM190500 34006KT P6SM SCT022
      TEMPO 1905/1909 BKN020
     FM191000 00000KT P6SM SKC=



000
FTUS41 KILN 181100
TAFCMH
TAF
KCMH 181124Z 1812/1912 29012KT P6SM BKN025
     FM181600 31014G24KT P6SM VCSH OVC025
      TEMPO 1819/1823 -SHRA
     FM182300 32012G18KT P6SM BKN025
      TEMPO 1823/1902 OVC018
     FM190200 33010KT P6SM OVC015
      TEMPO 1905/1908 BKN025
     FM190800 32004KT P6SM SCT025=



000
FTUS41 KILN 181100
TAFCVG
TAF
KCVG 181124Z 1812/1918 28012KT P6SM OVC025
     FM181900 31012G22KT P6SM VCSH OVC025
     FM182300 32010G18KT P6SM OVC020
      TEMPO 1902/1906 33008KT SCT020
     FM190600 34006KT P6SM SCT018
      TEMPO 1906/1910 BKN018
     FM191000 VRB03KT P6SM SKC=



000
FTUS41 KILN 181100
TAFLCK
TAF
KLCK 181124Z 1812/1912 29012KT P6SM BKN025
     FM181600 31014G24KT P6SM VCSH OVC025
      TEMPO 1819/1823 -SHRA
     FM182300 32012G18KT P6SM BKN025
      TEMPO 1823/1902 OVC018
     FM190200 33010KT P6SM OVC015
      TEMPO 1905/1908 BKN025
     FM190800 32004KT P6SM SCT025=



000
FTUS41 KILN 180900 AAA
TAFDAY
TAF AMD
KDAY 180900Z 1809/1906 30010KT P6SM OVC025
      TEMPO 1810/1812 SCT025 OVC035
     FM181500 31012G22KT P6SM VCSH OVC022
     FM182300 32010G18KT P6SM OVC020
      TEMPO 1823/1903 33010KT OVC015
     FM190300 31008KT P6SM OVC014=



000
FTUS41 KILN 180900 AAA
TAFILN
TAF AMD
KILN 180900Z 1809/1906 30011KT P6SM OVC025
      TEMPO 1811/1814 SCT015 SCT025 OVC035
     FM181500 31012G22KT P6SM VCSH OVC022
     FM182300 32010G18KT P6SM OVC020
      TEMPO 1823/1903 33010KT OVC015
     FM190300 31008KT P6SM OVC014=



000
FTUS41 KILN 180800 AAA
TAFCVG
TAF AMD
KCVG 180858Z 1809/1912 28010KT P6SM OVC045
     FM181100 29013KT P6SM OVC030
     FM181900 31012G22KT P6SM VCSH OVC025
     FM182300 32010G18KT P6SM OVC020
      TEMPO 1902/1906 33008KT SCT020
     FM190600 34006KT P6SM SCT020=



000
FTUS41 KILN 180800 AAA
TAFLCK
TAF AMD
KLCK 180814Z 1808/1906 28012KT P6SM BKN025 OVC040
      TEMPO 1808/1810 -RA BKN018 OVC025
     FM181600 31014G24KT P6SM VCSH OVC025
      TEMPO 1819/1823 -SHRA
     FM182300 32012G18KT P6SM BKN025
      TEMPO 1823/1903 OVC018
     FM190300 33010KT P6SM OVC015=



000
FTUS41 KILN 180800 AAA
TAFCMH
TAF AMD
KCMH 180812Z 1808/1906 28012KT P6SM BKN025 OVC040
      TEMPO 1808/1810 -RA BKN018 OVC025
     FM181600 31014G24KT P6SM VCSH OVC025
      TEMPO 1819/1823 -SHRA
     FM182300 32012G18KT P6SM BKN025
      TEMPO 1823/1903 OVC018
     FM190300 33010KT P6SM OVC015=



000
FTUS41 KILN 180500
TAFDAY
TAF
KDAY 180540Z 1806/1906 28013G18KT P6SM OVC025
      TEMPO 1806/1808 SCT025 OVC060
     FM180800 29012KT P6SM OVC015
      TEMPO 1808/1810 SCT015 OVC025
     FM181500 31012G22KT P6SM VCSH OVC022
     FM182300 32010G18KT P6SM OVC020
      TEMPO 1823/1903 33010KT OVC015
     FM190300 31008KT P6SM OVC014=



000
FTUS41 KILN 180500
TAFCMH
TAF
KCMH 180540Z 1806/1906 28012G18KT P6SM OVC030
     FM180800 28012KT P6SM OVC015
     FM181600 31014G24KT P6SM VCSH OVC025
      TEMPO 1819/1823 -SHRA
     FM182300 32012G18KT P6SM BKN025
      TEMPO 1823/1903 OVC018
     FM190300 33010KT P6SM OVC015=



000
FTUS41 KILN 180500
TAFLCK
TAF
KLCK 180540Z 1806/1906 28012G18KT P6SM OVC030
     FM180800 28012KT P6SM OVC015
     FM181600 31014G24KT P6SM VCSH OVC025
      TEMPO 1819/1823 -SHRA
     FM182300 32012G18KT P6SM BKN025
      TEMPO 1823/1903 OVC018
     FM190300 33010KT P6SM OVC015=



000
FTUS41 KILN 180500
TAFLUK
TAF
KLUK 180540Z 1806/1906 28012KT P6SM OVC045
     FM181100 29013KT P6SM OVC022
      TEMPO 1811/1813 BKN015
     FM181900 31012G22KT P6SM VCSH OVC025
     FM182300 32010G18KT P6SM OVC022
      TEMPO 1902/1905 33008KT SCT022
     FM190500 34006KT P6SM SCT022=



000
FTUS41 KILN 180500
TAFCVG
TAF
KCVG 180540Z 1806/1912 28012KT P6SM OVC045
     FM181100 29013KT P6SM OVC020
      TEMPO 1811/1813 BKN012
     FM181900 31012G22KT P6SM VCSH OVC025
     FM182300 32010G18KT P6SM OVC020
      TEMPO 1902/1906 33008KT SCT020
     FM190600 34006KT P6SM SCT020=



000
FTUS41 KILN 180500
TAFILN
TAF
KILN 180540Z 1806/1906 28013G18KT P6SM OVC025
      TEMPO 1806/1808 SCT025 OVC060
     FM180800 29012KT P6SM OVC015
      TEMPO 1808/1810 SCT015 OVC025
     FM181500 31012G22KT P6SM VCSH OVC022
     FM182300 32010G18KT P6SM OVC020
      TEMPO 1823/1903 33010KT OVC015
     FM190300 31008KT P6SM OVC014=



000
FTUS41 KILN 180200 AAA
TAFCMH
TAF AMD
KCMH 180222Z 1802/1824 28014G26KT P6SM OVC050
     FM180400 28012G18KT P6SM OVC035
      TEMPO 1805/1808 BKN025
     FM180800 28012KT P6SM OVC015
     FM181400 30012G22KT P6SM OVC018
     FM181900 31014G24KT P6SM VCSH OVC025
      TEMPO 1819/1823 -SHRA
     FM182300 32012G18KT P6SM BKN025=



000
FTUS41 KILN 180200 AAA
TAFLCK
TAF AMD
KLCK 180222Z 1802/1824 28014G26KT P6SM OVC050
     FM180400 28012G18KT P6SM OVC035
      TEMPO 1805/1808 BKN025
     FM180800 28012KT P6SM OVC015
     FM181400 30012G22KT P6SM OVC018
     FM181900 31014G24KT P6SM VCSH OVC025
      TEMPO 1819/1823 -SHRA
     FM182300 32012G18KT P6SM BKN025=



000
FTUS41 KILN 180200 AAA
TAFCVG
TAF AMD
KCVG 180222Z 1802/1906 27012G22KT P6SM SCT050 OVC080
     FM180400 28012KT P6SM OVC050
     FM181000 29012KT P6SM BKN025
      TEMPO 1810/1814 BKN015
     FM181500 30012G22KT P6SM OVC022
     FM181900 31012G24KT P6SM VCSH OVC025
     FM182300 32010G18KT P6SM BKN025
     FM190200 33010KT P6SM SCT035=



000
FTUS41 KILN 180200 AAA
TAFLUK
TAF AMD
KLUK 180222Z 1802/1824 27012G22KT P6SM SCT050 OVC080
     FM180400 28012KT P6SM OVC050
     FM181000 29012KT P6SM BKN025
      TEMPO 1810/1814 BKN018
     FM181500 30012G22KT P6SM OVC025
     FM181900 31012G24KT P6SM VCSH OVC025
     FM182300 32010G18KT P6SM BKN025=



000
FTUS41 KILN 180200 AAA
TAFILN
TAF AMD
KILN 180222Z 1802/1824 28014G26KT P6SM OVC050
     FM180400 28012G18KT P6SM OVC035
      TEMPO 1807/1809 BKN025
     FM180900 29012KT P6SM OVC015
     FM181400 30012G22KT P6SM OVC018
     FM181900 31012G24KT P6SM VCSH OVC025
     FM182300 32010G18KT P6SM BKN025=



000
FTUS41 KILN 180200 AAA
TAFDAY
TAF AMD
KDAY 180222Z 1802/1824 28014G26KT P6SM OVC050
     FM180400 28012G18KT P6SM OVC035
      TEMPO 1804/1808 BKN025
     FM180800 29012KT P6SM OVC015
     FM181300 30012G22KT P6SM OVC018
     FM181800 31012G24KT P6SM VCSH OVC025
     FM182300 32010G18KT P6SM BKN025=



000
FTUS41 KILN 172300
TAFDAY
TAF
KDAY 172323Z 1800/1824 27012G18KT P6SM OVC050
     FM180400 28012KT P6SM OVC035
     FM180800 29012KT P6SM OVC015
     FM181300 30012G22KT P6SM OVC018
     FM181800 31012G24KT P6SM VCSH OVC025
     FM182300 32010G18KT P6SM BKN025=



000
FTUS41 KILN 172300
TAFILN
TAF
KILN 172323Z 1800/1824 27012G18KT P6SM OVC050
     FM180400 28012KT P6SM OVC035
     FM180900 29012KT P6SM OVC015
     FM181400 30012G22KT P6SM OVC018
     FM181900 31012G24KT P6SM VCSH OVC025
     FM182300 32010G18KT P6SM BKN025=



000
FTUS41 KILN 172300
TAFCVG
TAF
KCVG 172323Z 1800/1906 26012G20KT P6SM SCT050
     FM180400 28012KT P6SM BKN040
     FM181000 29012KT P6SM BKN025
      TEMPO 1810/1814 BKN015
     FM181500 30012G22KT P6SM OVC022
     FM181900 31012G24KT P6SM VCSH OVC025
     FM182300 32010G18KT P6SM BKN025
     FM190200 33010KT P6SM SCT035=



000
FTUS41 KILN 172300
TAFLUK
TAF
KLUK 172323Z 1800/1824 26012G20KT P6SM SCT050
     FM180400 28012KT P6SM BKN040
     FM181000 29012KT P6SM BKN025
      TEMPO 1810/1814 BKN018
     FM181500 30012G22KT P6SM OVC025
     FM181900 31012G24KT P6SM VCSH OVC025
     FM182300 32010G18KT P6SM BKN025=



000
FTUS41 KILN 172300
TAFLCK
TAF
KLCK 172323Z 1800/1824 26012G22KT P6SM OVC060
     FM180300 27012KT P6SM OVC035
     FM180800 28012KT P6SM OVC015
     FM181400 30012G22KT P6SM OVC018
     FM181900 31014G24KT P6SM VCSH OVC025
      TEMPO 1819/1823 -SHRA
     FM182300 32012G18KT P6SM BKN025=



000
FTUS41 KILN 172300
TAFDAY
TAF
KDAY 172323Z 1800/1824 27012G18KT P6SM OVC050
     FM180400 28012KT P6SM OVC035
     FM180800 29012KT P6SM OVC015
     FM181300 30012G22KT P6SM OVC018
     FM181800 31012G24KT P6SM VCSH OVC025
     FM182300 32010G18KT P6SM BKN025=



000
FTUS41 KILN 172300
TAFCMH
TAF
KCMH 172323Z 1800/1824 26012G22KT P6SM OVC060
     FM180300 27012KT P6SM OVC035
     FM180800 28012KT P6SM OVC015
     FM181400 30012G22KT P6SM OVC018
     FM181900 31014G24KT P6SM VCSH OVC025
      TEMPO 1819/1823 -SHRA
     FM182300 32012G18KT P6SM BKN025=



000
FTUS41 KILN 172300
TAFILN
TAF
KILN 172323Z 1800/1824 27012G18KT P6SM OVC050
     FM180400 28012KT P6SM OVC035
     FM180900 29012KT P6SM OVC015
     FM181400 30012G22KT P6SM OVC018
     FM181900 31012G24KT P6SM VCSH OVC025
     FM182300 32010G18KT P6SM BKN025=



000
FTUS41 KILN 172300
TAFCVG
TAF
KCVG 172323Z 1800/1906 26012G20KT P6SM SCT050
     FM180400 28012KT P6SM BKN040
     FM181000 29012KT P6SM BKN025
      TEMPO 1810/1814 BKN015
     FM181500 30012G22KT P6SM OVC022
     FM181900 31012G24KT P6SM VCSH OVC025
     FM182300 32010G18KT P6SM BKN025
     FM190200 33010KT P6SM SCT035=



000
FTUS41 KILN 172300
TAFCMH
TAF
KCMH 172323Z 1800/1824 26012G22KT P6SM OVC060
     FM180300 27012KT P6SM OVC035
     FM180800 28012KT P6SM OVC015
     FM181400 30012G22KT P6SM OVC018
     FM181900 31014G24KT P6SM VCSH OVC025
      TEMPO 1819/1823 -SHRA
     FM182300 32012G18KT P6SM BKN025=



000
FTUS41 KILN 172300
TAFLCK
TAF
KLCK 172323Z 1800/1824 26012G22KT P6SM OVC060
     FM180300 27012KT P6SM OVC035
     FM180800 28012KT P6SM OVC015
     FM181400 30012G22KT P6SM OVC018
     FM181900 31014G24KT P6SM VCSH OVC025
      TEMPO 1819/1823 -SHRA
     FM182300 32012G18KT P6SM BKN025=



000
FTUS41 KILN 172300
TAFLUK
TAF
KLUK 172323Z 1800/1824 26012G20KT P6SM SCT050
     FM180400 28012KT P6SM BKN040
     FM181000 29012KT P6SM BKN025
      TEMPO 1810/1814 BKN018
     FM181500 30012G22KT P6SM OVC025
     FM181900 31012G24KT P6SM VCSH OVC025
     FM182300 32010G18KT P6SM BKN025=



000
FTUS41 KILN 172000 AAA
TAFLUK
TAF AMD
KLUK 172011Z 1720/1818 25012G20KT P6SM SCT040 BKN250
      TEMPO 1723/1801 OVC040
     FM180100 28008KT P6SM OVC035
     FM181300 31010KT P6SM OVC025=



000
FTUS41 KILN 172000 AAA
TAFLCK
TAF AMD
KLCK 172011Z 1720/1818 25012G22KT P6SM SCT025 BKN250
     FM180100 25014KT P6SM OVC035
     FM180800 28012KT P6SM OVC014
     FM181300 30013G23KT P6SM OVC018=



000
FTUS41 KILN 172000 AAA
TAFCVG
TAF AMD
KCVG 172011Z 1720/1824 25012G22KT P6SM SCT040 BKN250
      TEMPO 1723/1801 OVC035
     FM180100 28008KT P6SM OVC035
     FM181200 31011KT P6SM OVC022
     FM181800 32012G18KT P6SM OVC018=



000
FTUS41 KILN 172000 AAA
TAFILN
TAF AMD
KILN 172011Z 1720/1818 25014G24KT P6SM SCT040
     FM180000 26013KT P6SM OVC035
     FM180700 28012KT P6SM OVC025
     FM181300 30013G23KT P6SM OVC022=



000
FTUS41 KILN 172000 AAA
TAFDAY
TAF AMD
KDAY 172011Z 1720/1818 25014G24KT P6SM SCT035 SCT250
     FM172200 26013KT P6SM OVC035
     FM180600 29012KT P6SM OVC018
     FM181200 30014G24KT P6SM OVC015=



000
FTUS41 KILN 172000 AAA
TAFCMH
TAF AMD
KCMH 172011Z 1720/1818 25012G22KT P6SM SCT025 BKN250
     FM180100 25014KT P6SM OVC035
     FM180800 28012KT P6SM OVC014
     FM181300 30013G23KT P6SM OVC018=



000
FTUS41 KILN 172000 AAA
TAFLUK
TAF AMD
KLUK 172011Z 1720/1818 25012G20KT P6SM SCT040 BKN250
      TEMPO 1723/1801 OVC040
     FM180100 28008KT P6SM OVC035
     FM181300 31010KT P6SM OVC025=



000
FTUS41 KILN 172000 AAA
TAFLCK
TAF AMD
KLCK 172011Z 1720/1818 25012G22KT P6SM SCT025 BKN250
     FM180100 25014KT P6SM OVC035
     FM180800 28012KT P6SM OVC014
     FM181300 30013G23KT P6SM OVC018=



000
FTUS41 KILN 172000 AAA
TAFDAY
TAF AMD
KDAY 172011Z 1720/1818 25014G24KT P6SM SCT035 SCT250
     FM172200 26013KT P6SM OVC035
     FM180600 29012KT P6SM OVC018
     FM181200 30014G24KT P6SM OVC015=



000
FTUS41 KILN 172000 AAA
TAFILN
TAF AMD
KILN 172011Z 1720/1818 25014G24KT P6SM SCT040
     FM180000 26013KT P6SM OVC035
     FM180700 28012KT P6SM OVC025
     FM181300 30013G23KT P6SM OVC022=



000
FTUS41 KILN 172000 AAA
TAFCVG
TAF AMD
KCVG 172011Z 1720/1824 25012G22KT P6SM SCT040 BKN250
      TEMPO 1723/1801 OVC035
     FM180100 28008KT P6SM OVC035
     FM181200 31011KT P6SM OVC022
     FM181800 32012G18KT P6SM OVC018=



000
FTUS41 KILN 172000 AAA
TAFCMH
TAF AMD
KCMH 172011Z 1720/1818 25012G22KT P6SM SCT025 BKN250
     FM180100 25014KT P6SM OVC035
     FM180800 28012KT P6SM OVC014
     FM181300 30013G23KT P6SM OVC018=



000
FTUS41 KILN 171700
TAFDAY
TAF
KDAY 171737Z 1718/1818 22016G24KT P6SM SCT035 SCT250
     FM172200 26013KT P6SM OVC035
     FM180600 29012KT P6SM OVC018
     FM181200 30014G24KT P6SM OVC015=



000
FTUS41 KILN 171700
TAFCMH
TAF
KCMH 171737Z 1718/1818 22012G22KT P6SM SCT025 BKN250
     FM180100 25014KT P6SM OVC035
     FM180800 28012KT P6SM OVC014
     FM181300 30013G23KT P6SM OVC018=



000
FTUS41 KILN 171700
TAFILN
TAF
KILN 171737Z 1718/1818 23014G26KT P6SM SCT040
     FM180000 26013KT P6SM OVC035
     FM180700 28012KT P6SM OVC025
     FM181300 30013G23KT P6SM OVC022=



000
FTUS41 KILN 171700
TAFLUK
TAF
KLUK 171737Z 1718/1818 24011G20KT P6SM SCT040 BKN250
      TEMPO 1723/1801 OVC040
     FM180100 28008KT P6SM OVC035
     FM181300 31010KT P6SM OVC025=



000
FTUS41 KILN 171700
TAFLCK
TAF
KLCK 171737Z 1718/1818 22012G22KT P6SM SCT025 BKN250
     FM180100 25014KT P6SM OVC035
     FM180800 28012KT P6SM OVC014
     FM181300 30013G23KT P6SM OVC018=



000
FTUS41 KILN 171700
TAFCVG
TAF
KCVG 171737Z 1718/1824 23012G22KT P6SM SCT040 BKN250
      TEMPO 1723/1801 OVC035
     FM180100 28008KT P6SM OVC035
     FM181200 31011KT P6SM OVC022
     FM181800 32012G18KT P6SM OVC018=



000
FTUS41 KILN 171500 AAA
TAFLCK
TAF AMD
KLCK 171507Z 1715/1812 22012G22KT P6SM SCT025
     FM172300 25014KT P6SM OVC035
     FM180700 28012KT P6SM OVC014=



000
FTUS41 KILN 171500 AAA
TAFILN
TAF AMD
KILN 171506Z 1715/1812 23014G26KT P6SM SCT040
     FM172300 26013KT P6SM OVC035
     FM180500 28012KT P6SM OVC018=



000
FTUS41 KILN 171500 AAA
TAFCMH
TAF AMD
KCMH 171506Z 1715/1812 22012G22KT P6SM SCT025
     FM172300 25014KT P6SM OVC035
     FM180700 28012KT P6SM OVC014=



000
FTUS41 KILN 171500 AAA
TAFDAY
TAF AMD
KDAY 171505Z 1715/1812 22015G24KT P6SM SCT018 SCT250
     FM172200 26013KT P6SM OVC035
     FM180500 28012KT P6SM OVC018=



000
FTUS41 KILN 171500 AAA
TAFLUK
TAF AMD
KLUK 171503Z 1715/1812 22012G18KT P6SM FEW020
     FM171700 24011G20KT P6SM SCT040 BKN250
      TEMPO 1722/1724 OVC040
     FM180000 28008KT P6SM OVC028=



000
FTUS41 KILN 171500 AAA
TAFCVG
TAF AMD
KCVG 171501Z 1715/1818 22012G20KT P6SM FEW018
     FM171700 24012G22KT P6SM SCT040 BKN250
      TEMPO 1722/1724 OVC035
     FM180000 28008KT P6SM OVC025
     FM181300 31012KT P6SM OVC022=



000
FTUS41 KILN 171100
TAFDAY
TAF
KDAY 171134Z 1712/1812 20015G24KT P6SM SCT009 SCT250
      TEMPO 1712/1714 BKN009
     FM172100 26013KT P6SM OVC028
     FM180500 28012KT P6SM OVC018=



000
FTUS41 KILN 171100
TAFCMH
TAF
KCMH 171134Z 1712/1812 21009KT P6SM SCT012 BKN020
     FM171400 22012G20KT P6SM BKN025
     FM172300 25014KT P6SM OVC028
     FM180700 28012KT P6SM OVC014=



000
FTUS41 KILN 171100
TAFCVG
TAF
KCVG 171134Z 1712/1818 20008G16KT P6SM FEW006 SCT250
     FM171500 24012G22KT P6SM SCT040 BKN250
      TEMPO 1720/1724 OVC035
     FM180000 28008KT P6SM OVC025
     FM181300 31012KT P6SM OVC022=



000
FTUS41 KILN 171100
TAFLUK
TAF
KLUK 171134Z 1712/1812 18008KT P6SM SCT011 SCT250
      TEMPO 1712/1714 BKN011
     FM171500 24011G20KT P6SM SCT040 BKN250
      TEMPO 1720/1724 OVC040
     FM180000 28008KT P6SM OVC028=



000
FTUS41 KILN 171100
TAFILN
TAF
KILN 171134Z 1712/1812 19010KT P6SM BKN008
     FM171400 21010KT P6SM SCT030 SCT250
     FM171500 23016G26KT P6SM SCT040
     FM172200 26013KT P6SM OVC025
      TEMPO 1722/1724 SCT025 OVC035
     FM180500 28012KT P6SM OVC018=



000
FTUS41 KILN 171100
TAFCMH
TAF
KCMH 171134Z 1712/1812 21009KT P6SM SCT012 BKN020
     FM171400 22012G20KT P6SM BKN025
     FM172300 25014KT P6SM OVC028
     FM180700 28012KT P6SM OVC014=



000
FTUS41 KILN 171100
TAFLCK
TAF
KLCK 171134Z 1712/1812 28009KT P6SM BKN018
      TEMPO 1712/1714 SCT018 OVC025
     FM171400 22012G20KT P6SM BKN025
     FM172300 25014KT P6SM OVC028
     FM180700 28012KT P6SM OVC014=



000
FTUS41 KILN 171100
TAFDAY
TAF
KDAY 171134Z 1712/1812 20015G24KT P6SM SCT009 SCT250
      TEMPO 1712/1714 BKN009
     FM172100 26013KT P6SM OVC028
     FM180500 28012KT P6SM OVC018=



000
FTUS41 KILN 171100
TAFCVG
TAF
KCVG 171134Z 1712/1818 20008G16KT P6SM FEW006 SCT250
     FM171500 24012G22KT P6SM SCT040 BKN250
      TEMPO 1720/1724 OVC035
     FM180000 28008KT P6SM OVC025
     FM181300 31012KT P6SM OVC022=



000
FTUS41 KILN 171100
TAFLUK
TAF
KLUK 171134Z 1712/1812 18008KT P6SM SCT011 SCT250
      TEMPO 1712/1714 BKN011
     FM171500 24011G20KT P6SM SCT040 BKN250
      TEMPO 1720/1724 OVC040
     FM180000 28008KT P6SM OVC028=



000
FTUS41 KILN 171100
TAFILN
TAF
KILN 171134Z 1712/1812 19010KT P6SM BKN008
     FM171400 21010KT P6SM SCT030 SCT250
     FM171500 23016G26KT P6SM SCT040
     FM172200 26013KT P6SM OVC025
      TEMPO 1722/1724 SCT025 OVC035
     FM180500 28012KT P6SM OVC018=



000
FTUS41 KILN 171100
TAFLCK
TAF
KLCK 171134Z 1712/1812 28009KT P6SM BKN018
      TEMPO 1712/1714 SCT018 OVC025
     FM171400 22012G20KT P6SM BKN025
     FM172300 25014KT P6SM OVC028
     FM180700 28012KT P6SM OVC014=



    US Dept of Commerce
    National Oceanic and Atmospheric Administration
    National Weather Service
    1325 East West Highway
    Silver Spring, MD 20910
    Page Author: NWS Internet Services Team
Disclaimer
Information Quality
Credits
Glossary
Privacy Policy
Freedom of Information Act (FOIA)
About Us
Career Opportunities